Time,TemperatureF,DewpointF,PressureIn,WindDirection,WindDirectionDegrees,WindSpeedMPH,WindSpeedGustMPH,Humidity,HourlyPrecipIn,Conditions,Clouds,dailyrainin,SolarRadiationWatts/m^2,SoftwareType,DateUTC
2013-07-19 00:03:00,73.2,69.4,30.06,South,180,0.8,0.8,88,0.00,,,0.00,637,,2013-07-18 22:03:00,
2013-07-19 00:08:00,73.2,69.4,30.06,South,180,0.0,0.0,88,0.00,,,0.00,637,,2013-07-18 22:08:00,
2013-07-19 00:13:00,73.0,69.3,30.06,South,180,0.0,0.0,88,0.00,,,0.00,637,,2013-07-18 22:13:00,
2013-07-19 00:18:00,73.0,69.3,30.06,SE,135,0.8,0.0,88,0.00,,,0.00,637,,2013-07-18 22:18:00,
2013-07-19 00:23:00,73.0,69.3,30.06,SE,135,0.0,0.0,88,0.00,,,0.00,637,,2013-07-18 22:23:00,
2013-07-19 00:28:00,73.0,69.3,30.09,SE,135,0.0,0.0,88,0.00,,,0.00,637,,2013-07-18 22:28:00,
2013-07-19 00:33:00,72.9,69.1,30.09,South,180,0.0,0.0,88,0.00,,,0.00,637,,2013-07-18 22:33:00,
2013-07-19 00:38:00,72.9,69.1,30.09,South,180,0.0,0.4,88,0.00,,,0.00,637,,2013-07-18 22:38:00,
2013-07-19 00:43:00,73.0,69.3,30.09,SW,225,0.0,0.0,88,0.00,,,0.00,637,,2013-07-18 22:43:00,
2013-07-19 00:48:00,73.0,69.3,30.09,SW,225,0.0,0.0,88,0.00,,,0.00,637,,2013-07-18 22:48:00,
2013-07-19 00:53:00,72.9,69.1,30.09,SSW,202,0.0,0.0,88,0.00,,,0.00,637,,2013-07-18 22:53:00,
2013-07-19 00:58:00,72.3,68.2,30.09,ESE,112,0.8,0.8,87,0.00,,,0.00,637,,2013-07-18 22:58:00,
2013-07-19 01:03:00,72.3,67.5,30.09,East,90,0.0,1.3,85,0.00,,,0.00,637,,2013-07-18 23:03:00,
2013-07-19 09:31:00,76.6,62.1,30.06,South,180,1.3,0.0,61,-99.99,,,0.00,637,,2013-07-19 07:31:00,
2013-07-19 09:36:00,77.0,63.0,30.06,SSE,157,0.4,0.8,62,-99.99,,,0.00,637,,2013-07-19 07:36:00,
2013-07-19 09:41:00,77.5,63.3,30.06,South,180,0.0,0.0,62,-99.99,,,0.00,637,,2013-07-19 07:41:00,
2013-07-19 09:46:00,77.7,63.5,30.06,SSE,157,0.4,1.7,62,-99.99,,,0.00,637,,2013-07-19 07:46:00,
2013-07-19 09:51:00,77.5,63.9,30.06,WSW,247,1.3,1.7,63,-99.99,,,0.00,637,,2013-07-19 07:51:00,
2013-07-19 09:56:00,77.2,64.0,30.06,South,180,1.3,3.1,64,-99.99,,,0.00,637,,2013-07-19 07:56:00,
2013-07-19 10:01:00,77.2,64.4,30.06,South,180,0.8,1.7,65,-99.99,,,0.00,637,,2013-07-19 08:01:00,
2013-07-19 10:06:00,77.4,64.6,30.06,South,180,0.4,0.8,65,0.00,,,0.00,637,,2013-07-19 08:06:00,
2013-07-19 10:11:00,77.7,64.9,30.06,SSW,202,0.8,2.6,65,0.00,,,0.00,637,,2013-07-19 08:11:00,
2013-07-19 10:16:00,78.6,65.8,30.03,SSW,202,0.8,2.2,65,0.00,,,0.00,637,,2013-07-19 08:16:00,
2013-07-19 10:21:00,78.8,65.5,30.03,SE,135,0.8,0.8,64,0.00,,,0.00,637,,2013-07-19 08:21:00,
2013-07-19 10:26:00,78.6,64.4,30.06,SSE,157,1.3,4.4,62,0.00,,,0.00,637,,2013-07-19 08:26:00,
2013-07-19 10:31:00,77.9,64.2,30.06,SSW,202,1.7,3.1,63,0.00,,,0.00,637,,2013-07-19 08:31:00,
2013-07-19 10:36:00,77.7,63.5,30.06,South,180,2.6,2.6,62,0.00,,,0.00,637,,2013-07-19 08:36:00,
2013-07-19 10:41:00,77.4,64.2,30.06,SSW,202,1.7,2.2,64,0.00,,,0.00,637,,2013-07-19 08:41:00,
2013-07-19 10:46:00,77.5,64.2,30.03,South,180,2.2,5.3,64,0.00,,,0.00,637,,2013-07-19 08:46:00,
2013-07-19 10:51:00,77.0,64.8,30.03,South,180,2.6,2.6,66,0.00,,,0.00,637,,2013-07-19 08:51:00,
2013-07-19 10:56:00,77.4,64.9,30.06,South,180,0.8,0.8,66,0.00,,,0.00,637,,2013-07-19 08:56:00,
2013-07-19 11:01:00,77.7,65.3,30.06,SSW,202,0.4,2.2,66,0.00,,,0.00,637,,2013-07-19 09:01:00,
2013-07-19 11:06:00,78.1,65.7,30.06,South,180,0.8,0.8,66,0.00,,,0.00,637,,2013-07-19 09:06:00,
2013-07-19 11:11:00,78.1,65.3,30.06,South,180,0.8,1.7,65,0.00,,,0.00,637,,2013-07-19 09:11:00,
2013-07-19 11:16:00,78.6,65.8,30.06,WSW,247,0.8,1.3,65,0.00,,,0.00,637,,2013-07-19 09:16:00,
2013-07-19 11:21:00,79.2,65.3,30.06,ENE,67,0.8,2.2,63,0.00,,,0.00,637,,2013-07-19 09:21:00,
2013-07-19 11:26:00,79.7,65.8,30.06,SE,135,1.3,1.7,63,0.00,,,0.00,637,,2013-07-19 09:26:00,
2013-07-19 11:31:00,80.1,65.8,30.06,SE,135,0.8,0.8,62,0.00,,,0.00,637,,2013-07-19 09:31:00,
2013-07-19 11:36:00,81.1,66.4,30.06,SE,135,0.8,3.1,61,0.00,,,0.00,637,,2013-07-19 09:36:00,
2013-07-19 11:41:00,80.6,65.3,30.06,SE,135,1.7,1.7,60,0.00,,,0.00,637,,2013-07-19 09:41:00,
2013-07-19 11:46:00,80.6,65.3,30.06,ESE,112,1.3,1.7,60,0.00,,,0.00,637,,2013-07-19 09:46:00,
2013-07-19 11:51:00,81.3,66.0,30.06,ESE,112,0.4,1.3,60,0.00,,,0.00,637,,2013-07-19 09:51:00,
2013-07-19 11:56:00,81.9,66.0,30.06,ESE,112,1.7,3.1,59,0.00,,,0.00,637,,2013-07-19 09:56:00,
2013-07-19 12:01:00,81.7,65.3,30.06,SSE,157,1.7,2.2,58,0.00,,,0.00,637,,2013-07-19 10:01:00,
2013-07-19 12:06:00,82.0,65.1,30.06,SE,135,1.3,4.0,57,0.00,,,0.00,637,,2013-07-19 10:06:00,
2013-07-19 12:11:00,82.6,64.8,30.06,SE,135,1.7,3.5,55,0.00,,,0.00,637,,2013-07-19 10:11:00,
2013-07-19 12:16:00,82.8,63.9,30.03,SSE,157,1.3,2.6,53,0.00,,,0.00,637,,2013-07-19 10:16:00,
2013-07-19 12:21:00,82.9,64.0,30.03,SE,135,1.7,2.6,53,0.00,,,0.00,637,,2013-07-19 10:21:00,
2013-07-19 12:26:00,82.9,64.0,30.06,SSE,157,2.6,5.3,53,0.00,,,0.00,637,,2013-07-19 10:26:00,
2013-07-19 12:31:00,82.4,64.0,30.06,South,180,3.5,3.5,54,0.00,,,0.00,637,,2013-07-19 10:31:00,
2013-07-19 12:36:00,82.9,64.0,30.06,East,90,1.7,4.4,53,0.00,,,0.00,637,,2013-07-19 10:36:00,
2013-07-19 12:41:00,82.6,63.7,30.06,SSE,157,1.7,3.5,53,0.00,,,0.00,637,,2013-07-19 10:41:00,
2013-07-19 12:46:00,82.4,64.6,30.06,South,180,0.8,4.9,55,0.00,,,0.00,637,,2013-07-19 10:46:00,
2013-07-19 12:51:00,81.1,64.9,30.06,SE,135,4.9,4.9,58,0.00,,,0.00,637,,2013-07-19 10:51:00,
2013-07-19 12:56:00,81.0,65.1,30.03,SSE,157,2.2,2.2,59,0.00,,,0.00,637,,2013-07-19 10:56:00,
2013-07-19 13:01:00,81.3,66.6,30.03,SE,135,1.7,4.9,61,0.00,,,0.00,637,,2013-07-19 11:01:00,
2013-07-19 13:06:00,81.7,66.4,30.03,South,180,4.9,7.6,60,0.00,,,0.00,637,,2013-07-19 11:06:00,
2013-07-19 13:11:00,81.3,66.6,30.03,South,180,5.3,5.3,61,0.00,,,0.00,637,,2013-07-19 11:11:00,
2013-07-19 13:16:00,81.0,66.2,30.03,SSW,202,4.0,4.4,61,0.00,,,0.00,637,,2013-07-19 11:16:00,
2013-07-19 13:21:00,80.2,66.0,30.03,South,180,4.4,4.9,62,0.00,,,0.00,637,,2013-07-19 11:21:00,
2013-07-19 13:26:00,79.9,66.0,30.03,WSW,247,3.1,4.4,63,0.00,,,0.00,637,,2013-07-19 11:26:00,
2013-07-19 13:31:00,79.3,65.5,30.03,SSW,202,4.4,6.7,63,0.00,,,0.00,637,,2013-07-19 11:31:00,
2013-07-19 13:36:00,79.2,65.8,30.06,SSE,157,2.6,3.5,64,0.00,,,0.00,637,,2013-07-19 11:36:00,
2013-07-19 13:41:00,78.8,66.0,30.06,SSW,202,3.1,8.5,65,0.00,,,0.00,637,,2013-07-19 11:41:00,
2013-07-19 13:46:00,78.3,65.8,30.06,South,180,4.0,6.2,66,0.00,,,0.00,637,,2013-07-19 11:46:00,
2013-07-19 13:51:00,77.7,66.6,30.06,SW,225,3.5,5.3,69,0.00,,,0.00,637,,2013-07-19 11:51:00,
2013-07-19 13:56:00,77.2,66.9,30.03,West,270,4.4,5.8,71,0.00,,,0.00,637,,2013-07-19 11:56:00,
2013-07-19 14:01:00,76.8,67.5,30.03,SW,225,3.5,4.0,73,0.00,,,0.00,637,,2013-07-19 12:01:00,
2013-07-19 14:06:00,75.2,63.3,30.03,North,0,4.0,6.2,67,0.00,,,0.00,637,,2013-07-19 12:06:00,
2013-07-19 14:11:00,74.1,63.1,30.03,North,0,2.2,2.2,69,0.00,,,0.00,637,,2013-07-19 12:11:00,
2013-07-19 14:16:00,73.9,63.9,30.03,NNW,337,2.6,3.1,71,0.00,,,0.00,637,,2013-07-19 12:16:00,
2013-07-19 14:21:00,73.8,63.7,30.03,NNW,337,0.8,2.6,71,0.00,,,0.00,637,,2013-07-19 12:21:00,
2013-07-19 14:26:00,73.2,62.8,30.03,North,0,3.1,4.0,70,0.00,,,0.00,637,,2013-07-19 12:26:00,
2013-07-19 14:31:00,73.2,62.8,30.03,North,0,3.1,4.0,70,0.00,,,0.00,637,,2013-07-19 12:31:00,
2013-07-19 14:36:00,73.0,63.0,30.03,NNW,337,4.0,4.0,71,0.00,,,0.00,637,,2013-07-19 12:36:00,
2013-07-19 14:41:00,72.9,62.8,30.03,WNW,292,3.5,5.3,71,0.00,,,0.00,637,,2013-07-19 12:41:00,
2013-07-19 14:51:00,71.8,62.6,30.06,NNW,337,2.6,3.5,73,0.00,,,0.00,637,,2013-07-19 12:51:00,
2013-07-19 14:56:00,71.4,62.6,30.06,NNW,337,2.6,4.9,74,0.00,,,0.00,637,,2013-07-19 12:56:00,
2013-07-19 15:01:00,71.1,62.6,30.06,North,0,1.3,2.6,75,0.00,,,0.00,637,,2013-07-19 13:01:00,
2013-07-19 15:06:00,71.1,63.3,30.03,North,0,2.6,4.0,77,0.00,,,0.00,637,,2013-07-19 13:06:00,
2013-07-19 15:11:00,71.2,63.5,30.03,NNE,22,2.6,2.6,77,0.00,,,0.00,637,,2013-07-19 13:11:00,
2013-07-19 15:16:00,71.4,64.0,30.03,NE,45,0.8,1.3,78,0.00,,,0.00,637,,2013-07-19 13:16:00,
2013-07-19 15:21:00,71.6,64.2,30.03,North,0,1.3,2.2,78,0.00,,,0.00,637,,2013-07-19 13:21:00,
2013-07-19 15:26:00,72.0,64.6,30.03,NNE,22,1.7,4.9,78,0.00,,,0.00,637,,2013-07-19 13:26:00,
2013-07-19 15:31:00,72.0,64.6,30.03,ENE,67,3.1,4.0,78,0.00,,,0.00,637,,2013-07-19 13:31:00,
2013-07-19 15:36:00,72.1,64.4,30.06,NE,45,2.2,4.4,77,0.00,,,0.00,637,,2013-07-19 13:36:00,
2013-07-19 15:41:00,72.5,64.8,30.06,North,0,0.8,0.0,77,0.00,,,0.00,637,,2013-07-19 13:41:00,
2013-07-19 15:46:00,72.9,65.1,30.03,NE,45,0.0,0.0,77,0.00,,,0.00,637,,2013-07-19 13:46:00,
2013-07-19 15:51:00,73.0,65.3,30.03,North,0,0.8,1.3,77,0.00,,,0.00,637,,2013-07-19 13:51:00,
2013-07-19 15:56:00,73.2,65.1,30.03,North,0,1.3,1.7,76,0.00,,,0.00,637,,2013-07-19 13:56:00,
2013-07-19 16:01:00,73.6,65.5,30.03,North,0,1.7,3.1,76,0.00,,,0.00,637,,2013-07-19 14:01:00,
2013-07-19 16:06:00,74.3,66.2,30.03,ENE,67,0.8,0.0,76,0.00,,,0.00,637,,2013-07-19 14:06:00,
2013-07-19 16:11:00,75.2,66.6,30.03,NE,45,0.4,1.7,75,0.00,,,0.00,637,,2013-07-19 14:11:00,
2013-07-19 16:16:00,76.3,67.6,30.03,NNW,337,0.4,0.8,75,0.00,,,0.00,637,,2013-07-19 14:16:00,
2013-07-19 16:21:00,76.6,67.3,30.03,North,0,0.8,0.8,73,0.00,,,0.00,637,,2013-07-19 14:21:00,
2013-07-19 16:26:00,77.2,67.3,30.03,North,0,0.0,0.0,72,0.00,,,0.00,637,,2013-07-19 14:26:00,
2013-07-19 16:31:00,77.7,67.5,30.03,West,270,0.8,1.3,71,0.00,,,0.00,637,,2013-07-19 14:31:00,
2013-07-19 16:36:00,77.7,67.1,30.03,NNW,337,0.8,0.8,70,0.00,,,0.00,637,,2013-07-19 14:36:00,
2013-07-19 16:41:00,77.5,66.9,30.03,WNW,292,1.3,2.2,70,0.00,,,0.00,637,,2013-07-19 14:41:00,
2013-07-19 16:46:00,77.4,65.5,30.03,West,270,3.1,3.5,67,0.00,,,0.00,637,,2013-07-19 14:46:00,
2013-07-19 16:51:00,77.0,65.1,30.03,NW,315,1.7,2.2,67,0.00,,,0.00,637,,2013-07-19 14:51:00,
2013-07-19 16:56:00,76.6,64.8,30.00,North,0,3.1,4.9,67,0.00,,,0.00,637,,2013-07-19 14:56:00,
2013-07-19 17:01:00,76.8,65.3,30.00,WNW,292,2.2,3.1,68,0.00,,,0.00,637,,2013-07-19 15:01:00,
2013-07-19 17:06:00,76.8,65.3,30.03,NNW,337,2.6,2.6,68,0.00,,,0.00,637,,2013-07-19 15:06:00,
2013-07-19 17:11:00,77.0,65.5,30.03,NNW,337,3.1,4.9,68,0.00,,,0.00,637,,2013-07-19 15:11:00,
2013-07-19 17:16:00,77.0,66.4,30.03,NNW,337,2.2,4.0,70,0.00,,,0.00,637,,2013-07-19 15:16:00,
2013-07-19 17:21:00,77.0,66.7,30.03,NW,315,2.2,3.1,71,0.00,,,0.00,637,,2013-07-19 15:21:00,
2013-07-19 17:26:00,77.4,67.1,30.03,ENE,67,0.4,1.3,71,0.00,,,0.00,637,,2013-07-19 15:26:00,
2013-07-19 17:31:00,77.5,66.9,30.03,NNE,22,1.3,3.5,70,0.00,,,0.00,637,,2013-07-19 15:31:00,
2013-07-19 17:36:00,77.4,66.4,30.03,NE,45,1.3,2.2,69,0.00,,,0.00,637,,2013-07-19 15:36:00,
2013-07-19 17:41:00,77.7,66.2,30.03,NNW,337,2.6,4.0,68,0.00,,,0.00,637,,2013-07-19 15:41:00,
2013-07-19 17:46:00,77.4,65.8,30.03,NNW,337,2.6,4.9,68,0.00,,,0.00,637,,2013-07-19 15:46:00,
2013-07-19 17:51:00,77.0,65.1,30.03,North,0,4.4,5.8,67,0.00,,,0.00,637,,2013-07-19 15:51:00,
2013-07-19 17:56:00,77.2,65.3,30.00,North,0,2.6,3.5,67,0.00,,,0.00,637,,2013-07-19 15:56:00,
2013-07-19 18:01:00,77.0,64.8,30.00,North,0,3.5,6.7,66,0.00,,,0.00,637,,2013-07-19 16:01:00,
2013-07-19 18:06:00,76.5,64.2,30.03,NNE,22,3.5,7.6,66,0.00,,,0.00,637,,2013-07-19 16:06:00,
2013-07-19 18:11:00,76.5,64.2,30.03,North,0,1.7,1.7,66,0.00,,,0.00,637,,2013-07-19 16:11:00,
2013-07-19 18:16:00,76.3,64.0,30.03,NNW,337,1.7,3.1,66,0.00,,,0.00,637,,2013-07-19 16:16:00,
2013-07-19 18:21:00,76.3,64.0,30.03,North,0,2.6,2.6,66,0.00,,,0.00,637,,2013-07-19 16:21:00,
2013-07-19 18:26:00,75.9,63.7,30.03,North,0,2.2,2.6,66,0.00,,,0.00,637,,2013-07-19 16:26:00,
2013-07-19 18:31:00,76.1,64.2,30.03,NNE,22,1.3,1.3,67,0.00,,,0.00,637,,2013-07-19 16:31:00,
2013-07-19 18:36:00,75.9,63.7,30.00,NE,45,2.6,4.4,66,0.00,,,0.00,637,,2013-07-19 16:36:00,
2013-07-19 18:41:00,75.6,63.3,30.00,ENE,67,2.2,3.1,66,0.00,,,0.00,637,,2013-07-19 16:41:00,
2013-07-19 18:46:00,75.4,63.1,30.03,ENE,67,1.7,4.0,66,0.00,,,0.00,637,,2013-07-19 16:46:00,
2013-07-19 18:51:00,75.4,63.5,30.03,ENE,67,2.2,4.9,67,0.00,,,0.00,637,,2013-07-19 16:51:00,
2013-07-19 18:56:00,75.0,63.1,30.00,ENE,67,2.2,4.4,67,0.00,,,0.00,637,,2013-07-19 16:56:00,
2013-07-19 19:01:00,75.0,63.1,30.00,NNE,22,1.7,3.1,67,0.00,,,0.00,637,,2013-07-19 17:01:00,
2013-07-19 19:06:00,74.8,63.5,30.03,North,0,1.3,1.7,68,0.00,,,0.00,637,,2013-07-19 17:06:00,
2013-07-19 19:11:00,74.7,63.3,30.03,NNW,337,4.0,7.6,68,0.00,,,0.00,637,,2013-07-19 17:11:00,
2013-07-19 19:16:00,74.1,62.8,30.03,North,0,5.8,5.8,68,0.00,,,0.00,637,,2013-07-19 17:16:00,
2013-07-19 19:21:00,73.8,62.4,30.03,North,0,4.0,4.9,68,0.00,,,0.00,637,,2013-07-19 17:21:00,
2013-07-19 19:26:00,73.8,62.1,30.00,North,0,3.5,4.9,67,0.00,,,0.00,637,,2013-07-19 17:26:00,
2013-07-19 19:31:00,73.8,62.1,30.00,North,0,1.7,4.4,67,0.00,,,0.00,637,,2013-07-19 17:31:00,
2013-07-19 19:36:00,73.8,61.5,30.00,NNW,337,2.2,3.1,66,0.00,,,0.00,637,,2013-07-19 17:36:00,
2013-07-19 19:41:00,73.6,62.2,30.00,NW,315,4.9,4.9,68,0.00,,,0.00,637,,2013-07-19 17:41:00,
2013-07-19 19:46:00,72.7,62.6,30.00,NNW,337,2.6,4.0,71,0.00,,,0.00,637,,2013-07-19 17:46:00,
2013-07-19 19:51:00,72.1,63.0,30.00,NNW,337,2.2,4.9,73,0.00,,,0.00,637,,2013-07-19 17:51:00,
2013-07-19 19:56:00,72.0,63.5,30.00,NNW,337,3.5,4.9,75,0.00,,,0.00,637,,2013-07-19 17:56:00,
2013-07-19 20:01:00,71.6,63.5,30.00,North,0,2.2,2.2,76,0.00,,,0.00,637,,2013-07-19 18:01:00,
2013-07-19 20:06:00,71.4,64.4,30.03,North,0,4.0,4.0,79,0.00,,,0.00,637,,2013-07-19 18:06:00,
2013-07-19 20:11:00,71.2,64.2,30.03,NNE,22,1.7,5.8,79,0.00,,,0.00,637,,2013-07-19 18:11:00,
2013-07-19 20:16:00,71.2,63.9,30.00,NNE,22,2.2,3.5,78,0.00,,,0.00,637,,2013-07-19 18:16:00,
2013-07-19 20:21:00,71.2,63.5,30.00,NE,45,2.2,4.0,77,0.00,,,0.00,637,,2013-07-19 18:21:00,
2013-07-19 20:26:00,71.4,63.3,30.00,East,90,0.8,2.2,76,0.00,,,0.00,637,,2013-07-19 18:26:00,
2013-07-19 20:31:00,71.8,63.3,30.00,East,90,1.7,3.5,75,0.00,,,0.00,637,,2013-07-19 18:31:00,
2013-07-19 20:36:00,71.8,63.0,30.00,NE,45,0.4,0.0,74,0.00,,,0.00,637,,2013-07-19 18:36:00,
2013-07-19 20:41:00,72.1,62.6,30.00,NNE,22,1.7,1.7,72,0.00,,,0.00,637,,2013-07-19 18:41:00,
2013-07-19 20:46:00,72.3,62.2,30.00,SE,135,1.3,3.1,71,0.00,,,0.00,637,,2013-07-19 18:46:00,
2013-07-19 20:51:00,72.3,62.2,30.00,SE,135,0.4,0.0,71,0.00,,,0.00,637,,2013-07-19 18:51:00,
2013-07-19 20:56:00,72.5,62.4,30.00,ESE,112,0.0,0.4,71,0.00,,,0.00,637,,2013-07-19 18:56:00,
2013-07-19 21:01:00,72.5,62.4,30.00,ESE,112,0.4,0.4,71,0.00,,,0.00,637,,2013-07-19 19:01:00,
2013-07-19 21:06:00,72.5,62.4,30.00,East,90,0.4,0.8,71,0.00,,,0.00,637,,2013-07-19 19:06:00,
2013-07-19 21:11:00,72.3,62.2,30.00,East,90,1.7,3.1,71,0.00,,,0.00,637,,2013-07-19 19:11:00,
2013-07-19 21:16:00,72.0,61.9,30.00,East,90,1.7,2.2,71,0.00,,,0.00,637,,2013-07-19 19:16:00,
2013-07-19 21:21:00,71.8,62.2,30.00,East,90,1.3,1.7,72,0.00,,,0.00,637,,2013-07-19 19:21:00,
2013-07-19 21:26:00,71.6,61.5,30.00,East,90,0.8,0.8,71,0.00,,,0.00,637,,2013-07-19 19:26:00,
2013-07-19 21:31:00,71.8,61.7,30.00,SE,135,0.4,1.7,71,0.00,,,0.00,637,,2013-07-19 19:31:00,
2013-07-19 21:36:00,72.3,61.9,30.00,South,180,0.0,0.0,70,0.00,,,0.00,637,,2013-07-19 19:36:00,
2013-07-19 21:41:00,72.1,61.7,30.00,North,0,0.4,1.7,70,0.00,,,0.00,637,,2013-07-19 19:41:00,
2013-07-19 21:46:00,72.0,61.5,30.00,NE,45,0.4,1.3,70,0.00,,,0.00,637,,2013-07-19 19:46:00,
2013-07-19 21:51:00,71.2,61.3,30.00,ENE,67,2.2,3.1,71,0.00,,,0.00,637,,2013-07-19 19:51:00,
2013-07-19 22:01:00,70.7,60.8,30.00,East,90,1.7,2.2,71,0.00,,,0.00,637,,2013-07-19 20:01:00,
2013-07-19 22:06:00,70.9,61.0,30.03,East,90,0.8,0.8,71,0.00,,,0.00,637,,2013-07-19 20:06:00,
2013-07-19 22:11:00,70.9,61.0,30.03,East,90,0.0,0.0,71,0.00,,,0.00,637,,2013-07-19 20:11:00,
2013-07-19 22:16:00,70.9,61.0,30.00,East,90,0.0,0.0,71,0.00,,,0.00,637,,2013-07-19 20:16:00,
2013-07-19 22:21:00,71.1,61.2,30.00,East,90,0.0,0.0,71,0.00,,,0.00,637,,2013-07-19 20:21:00,
2013-07-19 22:26:00,71.1,61.2,30.00,East,90,0.8,2.6,71,0.00,,,0.00,637,,2013-07-19 20:26:00,
2013-07-19 22:31:00,70.9,61.0,30.00,East,90,1.7,2.2,71,0.00,,,0.00,637,,2013-07-19 20:31:00,
2013-07-19 22:36:00,70.9,61.3,30.03,East,90,0.4,0.8,72,0.00,,,0.00,637,,2013-07-19 20:36:00,
2013-07-19 22:41:00,70.9,61.3,30.03,East,90,0.4,0.8,72,0.00,,,0.00,637,,2013-07-19 20:41:00,
2013-07-19 22:46:00,71.1,61.9,30.03,East,90,0.0,0.0,73,0.00,,,0.00,637,,2013-07-19 20:46:00,
2013-07-19 22:51:00,71.1,61.9,30.03,East,90,0.4,2.2,73,0.00,,,0.00,637,,2013-07-19 20:51:00,
2013-07-19 22:56:00,71.1,61.9,30.00,East,90,0.8,1.3,73,0.00,,,0.00,637,,2013-07-19 20:56:00,
2013-07-19 23:01:00,71.1,61.9,30.00,East,90,0.0,0.0,73,0.00,,,0.00,637,,2013-07-19 21:01:00,
2013-07-19 23:06:00,71.1,61.9,30.03,East,90,0.0,0.8,73,0.00,,,0.00,637,,2013-07-19 21:06:00,
2013-07-19 23:11:00,71.1,62.2,30.03,East,90,0.0,0.4,74,0.00,,,0.00,637,,2013-07-19 21:11:00,
2013-07-19 23:16:00,71.1,62.2,30.03,East,90,0.0,0.8,74,0.00,,,0.00,637,,2013-07-19 21:16:00,
2013-07-19 23:21:00,71.1,62.2,30.03,East,90,0.4,1.3,74,0.00,,,0.00,637,,2013-07-19 21:21:00,
2013-07-19 23:26:00,71.1,62.2,30.00,East,90,0.4,0.0,74,0.00,,,0.00,637,,2013-07-19 21:26:00,
2013-07-19 23:31:00,70.9,62.4,30.00,East,90,0.0,0.0,75,0.00,,,0.00,637,,2013-07-19 21:31:00,
2013-07-19 23:36:00,70.9,62.4,30.03,East,90,0.0,0.0,75,0.00,,,0.00,637,,2013-07-19 21:36:00,
2013-07-19 23:41:00,70.9,62.1,30.03,East,90,0.0,0.0,74,0.00,,,0.00,637,,2013-07-19 21:41:00,
2013-07-19 23:46:00,70.9,62.1,30.00,East,90,0.0,0.4,74,0.00,,,0.00,637,,2013-07-19 21:46:00,
2013-07-19 23:51:00,70.7,61.9,30.00,East,90,0.0,0.0,74,0.00,,,0.00,637,,2013-07-19 21:51:00,
2013-07-19 23:56:00,70.9,62.1,30.03,SSE,157,0.0,0.0,74,0.00,,,0.00,637,,2013-07-19 21:56:00,